Time;durP1;ratioP1;P1;durP2;ratioP2;P2;SDS_P1;SDS_P2;PMS_P1;PMS_P2;Temp;Humidity;BMP_temperature;BMP_pressure;BME280_temperature;BME280_humidity;BME280_pressure;Samples;Min_cycle;Max_cycle;Signal;HPM_P1;HPM_P2
2022/04/22 00:00:58;;;;;;;;;;;;;;;;;;5014807;28;21468;-51
2022/04/22 00:03:23;;;;;;;;;;;;;;;;;;5031791;28;19909;-50
2022/04/22 00:05:49;;;;;;;;;;;;;;;;;;5034372;28;20472;-52
2022/04/22 00:08:14;;;;;;;;;;;;;;;;;;5035850;28;19920;-53
2022/04/22 00:13:23;;;;;;;;;;;;;;;;;;5035338;28;19909;-55
2022/04/22 00:15:49;;;;;;;;;;;;;;;;;;5036359;28;19913;-57
2022/04/22 00:18:14;;;;;;;;;;;;;;;;;;5031530;28;19920;-61
2022/04/22 00:20:39;;;;;;;;;;;;;;;;;;5015923;28;19917;-53
2022/04/22 00:23:04;;;;;;;;;;;;;;;;;;5015315;28;19913;-53
2022/04/22 00:25:29;;;;;;;;;;;;;;;;;;5015122;28;20270;-53
2022/04/22 00:27:55;;;;;;;;;;;;;;;;;;5015613;28;20016;-49
2022/04/22 00:30:20;;;;;;;;;;;;;;;;;;5015733;28;19932;-52
2022/04/22 00:32:45;;;;;;;;;;;;;;;;;;5038208;28;19909;-50
2022/04/22 00:35:11;;;;;;;;;;;;;;;;;;5053424;28;19908;-49
2022/04/22 00:37:36;;;;;;;;;;;;;;;;;;5055386;28;19909;-50
2022/04/22 00:40:01;;;;;;;;;;;;;;;;;;5054018;28;20273;-50
2022/04/22 00:42:28;;;;;;;;;;;;;;;;;;5054880;28;20038;-52
2022/04/22 00:44:53;;;;;;;;;;;;;;;;;;5054995;28;20388;-51
2022/04/22 00:47:18;;;;;;;;;;;;;;;;;;5054643;28;19920;-53
2022/04/22 00:49:43;;;;;;;;;;;;;;;;;;5054710;28;19916;-50
2022/04/22 00:52:09;;;;;;;;;;;;;;;;;;5055468;28;19916;-52
2022/04/22 00:54:34;;;;;;;;;;;;;;;;;;5054396;28;19909;-49
2022/04/22 00:56:59;;;;;;;;;;;;;;;;;;5055036;28;19978;-49
2022/04/22 00:59:25;;;;;;;;;;;;;;;;;;5054187;28;19915;-50
2022/04/22 01:01:50;;;;;;;;;;;;;;;;;;5054462;28;19909;-52
2022/04/22 01:09:50;;;;;;;;;;;;;;;;;;5033521;28;20350;-53
2022/04/22 01:12:15;;;;;;;;;;;;;;;;;;5032304;28;19920;-52
2022/04/22 01:14:41;;;;;;;;;;;;;;;;;;5026717;28;19909;-51
2022/04/22 01:17:06;;;;;;;;;;;;;;;;;;5017921;28;20239;-52
2022/04/22 01:19:32;;;;;;;;;;;;;;;;;;5034083;28;19956;-52
2022/04/22 01:21:57;;;;;;;;;;;;;;;;;;5034518;28;20260;-52
2022/04/22 01:24:22;;;;;;;;;;;;;;;;;;5033819;28;19909;-53
2022/04/22 01:26:47;;;;;;;;;;;;;;;;;;5033902;28;19913;-50
2022/04/22 01:29:13;;;;;;;;;;;;;;;;;;5032496;28;22004;-53
2022/04/22 01:31:38;;;;;;;;;;;;;;;;;;5015790;28;20354;-50
2022/04/22 01:34:04;;;;;;;;;;;;;;;;;;5013353;28;19909;-54
2022/04/22 01:36:29;;;;;;;;;;;;;;;;;;5014683;28;19906;-52
2022/04/22 01:38:55;;;;;;;;;;;;;;;;;;5014229;28;19921;-51
2022/04/22 01:41:21;;;;;;;;;;;;;;;;;;5046063;28;19931;-53
2022/04/22 01:43:46;;;;;;;;;;;;;;;;;;5011938;28;20266;-49
2022/04/22 01:46:12;;;;;;;;;;;;;;;;;;5013814;28;19917;-49
2022/04/22 01:48:37;;;;;;;;;;;;;;;;;;5013549;28;19909;-52
2022/04/22 01:51:02;;;;;;;;;;;;;;;;;;5013793;28;20288;-51
2022/04/22 01:53:27;;;;;;;;;;;;;;;;;;5014643;28;19909;-51
2022/04/22 01:55:53;;;;;;;;;;;;;;;;;;5046847;28;19913;-51
2022/04/22 01:58:18;;;;;;;;;;;;;;;;;;5014164;28;19917;-52
2022/04/22 02:00:43;;;;;;;;;;;;;;;;;;5013398;28;19959;-49
2022/04/22 02:03:08;;;;;;;;;;;;;;;;;;5013598;28;19916;-52
2022/04/22 02:05:34;;;;;;;;;;;;;;;;;;5012862;28;19909;-49
2022/04/22 02:07:59;;;;;;;;;;;;;;;;;;5013024;28;20262;-51
2022/04/22 02:10:24;;;;;;;;;;;;;;;;;;5011860;28;20161;-53
2022/04/22 02:12:49;;;;;;;;;;;;;;;;;;5014788;28;19909;-52
2022/04/22 02:15:16;;;;;;;;;;;;;;;;;;5028999;28;19914;-50
2022/04/22 02:17:42;;;;;;;;;;;;;;;;;;5013823;28;19917;-51
2022/04/22 02:20:07;;;;;;;;;;;;;;;;;;5013541;28;19905;-52
2022/04/22 02:22:34;;;;;;;;;;;;;;;;;;5011712;28;19916;-53
2022/04/22 02:25:00;;;;;;;;;;;;;;;;;;5014309;28;20015;-49
2022/04/22 02:30:09;;;;;;;;;;;;;;;;;;5045784;28;19952;-50
2022/04/22 02:32:34;;;;;;;;;;;;;;;;;;5013678;28;20441;-52
2022/04/22 02:35:00;;;;;;;;;;;;;;;;;;5012631;28;19956;-50
2022/04/22 02:37:25;;;;;;;;;;;;;;;;;;5011476;28;19917;-52
2022/04/22 02:39:50;;;;;;;;;;;;;;;;;;5013588;28;19964;-53
2022/04/22 02:47:43;;;;;;;;;;;;;;;;;;5017116;28;19939;-54
2022/04/22 02:50:09;;;;;;;;;;;;;;;;;;5017099;28;20334;-51
2022/04/22 02:52:34;;;;;;;;;;;;;;;;;;5017634;28;19941;-51
2022/04/22 02:54:59;;;;;;;;;;;;;;;;;;5017255;28;19909;-49
2022/04/22 02:57:24;;;;;;;;;;;;;;;;;;5014010;28;19921;-49
2022/04/22 02:59:49;;;;;;;;;;;;;;;;;;5031981;28;20366;-49
2022/04/22 03:02:15;;;;;;;;;;;;;;;;;;5048948;28;20005;-50
2022/04/22 03:04:40;;;;;;;;;;;;;;;;;;5049324;28;20343;-52
2022/04/22 03:07:06;;;;;;;;;;;;;;;;;;5016661;28;20382;-49
2022/04/22 03:09:32;;;;;;;;;;;;;;;;;;5017693;28;20254;-52
2022/04/22 03:11:57;;;;;;;;;;;;;;;;;;5016682;28;19912;-50
2022/04/22 03:14:22;;;;;;;;;;;;;;;;;;5017316;28;19937;-52
2022/04/22 03:16:48;;;;;;;;;;;;;;;;;;5014855;28;19913;-49
2022/04/22 03:19:13;;;;;;;;;;;;;;;;;;5016470;28;20247;-50
2022/04/22 03:21:38;;;;;;;;;;;;;;;;;;5017569;28;20068;-54
2022/04/22 03:24:03;;;;;;;;;;;;;;;;;;5016429;28;20039;-53
2022/04/22 03:26:29;;;;;;;;;;;;;;;;;;5015143;28;20338;-50
2022/04/22 03:28:54;;;;;;;;;;;;;;;;;;5016705;28;20214;-50
2022/04/22 03:31:19;;;;;;;;;;;;;;;;;;5016399;28;20344;-52
2022/04/22 03:33:44;;;;;;;;;;;;;;;;;;5015598;28;19979;-49
2022/04/22 03:36:09;;;;;;;;;;;;;;;;;;5015124;28;19905;-51
2022/04/22 03:38:35;;;;;;;;;;;;;;;;;;5016489;28;19913;-53
2022/04/22 03:41:00;;;;;;;;;;;;;;;;;;5016819;28;19959;-52
2022/04/22 03:43:26;;;;;;;;;;;;;;;;;;5016154;28;20274;-51
2022/04/22 03:45:51;;;;;;;;;;;;;;;;;;5048336;28;19922;-53
2022/04/22 03:48:16;;;;;;;;;;;;;;;;;;5016281;28;20334;-51
2022/04/22 03:50:41;;;;;;;;;;;;;;;;;;5016094;28;20319;-52
2022/04/22 03:53:08;;;;;;;;;;;;;;;;;;5014059;28;19910;-53
2022/04/22 03:55:34;;;;;;;;;;;;;;;;;;5016121;28;19952;-51
2022/04/22 03:58:11;;;;;;;;;;;;;;;;;;5016493;28;19913;-50
2022/04/22 04:00:39;;;;;;;;;;;;;;;;;;5030592;28;20007;-51
2022/04/22 04:03:04;;;;;;;;;;;;;;;;;;5020909;28;20350;-49
2022/04/22 04:05:31;;;;;;;;;;;;;;;;;;5016100;28;19917;-49
2022/04/22 04:07:56;;;;;;;;;;;;;;;;;;5013203;28;19921;-49
2022/04/22 04:15:57;;;;;;;;;;;;;;;;;;5015946;28;19917;-53
2022/04/22 04:18:23;;;;;;;;;;;;;;;;;;5016336;28;19909;-52
2022/04/22 04:23:32;;;;;;;;;;;;;;;;;;5013387;28;19960;-52
2022/04/22 04:25:59;;;;;;;;;;;;;;;;;;5015857;28;19968;-53
2022/04/22 04:28:27;;;;;;;;;;;;;;;;;;5028442;28;20404;-50
2022/04/22 04:30:52;;;;;;;;;;;;;;;;;;5047507;28;20342;-53
2022/04/22 04:33:17;;;;;;;;;;;;;;;;;;5013218;28;19916;-51
2022/04/22 04:35:46;;;;;;;;;;;;;;;;;;5015140;28;20269;-50
2022/04/22 04:38:12;;;;;;;;;;;;;;;;;;5015735;28;19910;-50
2022/04/22 04:40:37;;;;;;;;;;;;;;;;;;5015619;28;19910;-51
2022/04/22 04:43:02;;;;;;;;;;;;;;;;;;5015570;28;19914;-51
2022/04/22 04:45:28;;;;;;;;;;;;;;;;;;5015811;28;19956;-53
2022/04/22 04:47:53;;;;;;;;;;;;;;;;;;5013556;28;19967;-60
2022/04/22 04:50:18;;;;;;;;;;;;;;;;;;5015539;28;19906;-52
2022/04/22 04:52:43;;;;;;;;;;;;;;;;;;5014081;28;20351;-50
2022/04/22 04:55:09;;;;;;;;;;;;;;;;;;5030304;28;20004;-49
2022/04/22 04:57:34;;;;;;;;;;;;;;;;;;5015076;28;20266;-51
2022/04/22 05:00:00;;;;;;;;;;;;;;;;;;5013446;28;19916;-48
2022/04/22 05:02:25;;;;;;;;;;;;;;;;;;5014704;28;20266;-50
2022/04/22 05:04:50;;;;;;;;;;;;;;;;;;5046025;28;20381;-52
2022/04/22 05:07:15;;;;;;;;;;;;;;;;;;5014026;28;20365;-53
2022/04/22 05:09:40;;;;;;;;;;;;;;;;;;5046692;28;20381;-51
2022/04/22 05:12:06;;;;;;;;;;;;;;;;;;5014075;28;19932;-49
2022/04/22 05:14:31;;;;;;;;;;;;;;;;;;5015423;28;20035;-52
2022/04/22 05:16:56;;;;;;;;;;;;;;;;;;5046206;28;20020;-53
2022/04/22 05:19:22;;;;;;;;;;;;;;;;;;5014330;28;20000;-54
2022/04/22 05:21:48;;;;;;;;;;;;;;;;;;5015256;28;19918;-53
2022/04/22 05:24:13;;;;;;;;;;;;;;;;;;5013128;28;19910;-51
2022/04/22 05:26:38;;;;;;;;;;;;;;;;;;5026372;28;19917;-49
2022/04/22 05:29:03;;;;;;;;;;;;;;;;;;5033055;28;20433;-50
2022/04/22 05:34:12;;;;;;;;;;;;;;;;;;5034343;28;20200;-52
2022/04/22 05:36:38;;;;;;;;;;;;;;;;;;5033340;28;20353;-49
2022/04/22 05:39:07;;;;;;;;;;;;;;;;;;5031907;28;20320;-50
2022/04/22 05:41:32;;;;;;;;;;;;;;;;;;5032598;28;20285;-51
2022/04/22 05:43:57;;;;;;;;;;;;;;;;;;5034240;28;19909;-49
2022/04/22 05:46:22;;;;;;;;;;;;;;;;;;5034392;28;19913;-48
2022/04/22 05:48:48;;;;;;;;;;;;;;;;;;5033857;28;19916;-51
2022/04/22 05:51:13;;;;;;;;;;;;;;;;;;5034665;28;19951;-48
2022/04/22 05:53:44;;;;;;;;;;;;;;;;;;5032390;28;19916;-50
2022/04/22 05:56:09;;;;;;;;;;;;;;;;;;5034249;28;19915;-50
2022/04/22 05:58:34;;;;;;;;;;;;;;;;;;5034864;28;19909;-54
2022/04/22 06:00:59;;;;;;;;;;;;;;;;;;5032886;28;19915;-50
2022/04/22 06:03:25;;;;;;;;;;;;;;;;;;5034185;28;19909;-50
2022/04/22 06:05:50;;;;;;;;;;;;;;;;;;5033898;28;19916;-52
2022/04/22 06:10:59;;;;;;;;;;;;;;;;;;5033840;28;19940;-50
2022/04/22 06:13:24;;;;;;;;;;;;;;;;;;5033752;28;20010;-49
2022/04/22 06:15:49;;;;;;;;;;;;;;;;;;5033542;28;19909;-52
2022/04/22 06:18:15;;;;;;;;;;;;;;;;;;5033864;28;20274;-49
2022/04/22 06:20:40;;;;;;;;;;;;;;;;;;5033415;28;19936;-58
2022/04/22 06:23:06;;;;;;;;;;;;;;;;;;5032991;28;19913;-50
2022/04/22 06:25:31;;;;;;;;;;;;;;;;;;5032094;28;19964;-52
2022/04/22 06:27:56;;;;;;;;;;;;;;;;;;5033259;28;19971;-50
2022/04/22 06:30:21;;;;;;;;;;;;;;;;;;5034313;28;19905;-51
2022/04/22 06:32:47;;;;;;;;;;;;;;;;;;5033374;28;19975;-53
2022/04/22 06:35:12;;;;;;;;;;;;;;;;;;5034048;28;19909;-54
2022/04/22 06:37:37;;;;;;;;;;;;;;;;;;5033348;28;19909;-50
2022/04/22 06:45:48;;;;;;;;;;;;;;;;;;5033131;28;19909;-52
2022/04/22 06:48:17;;;;;;;;;;;;;;;;;;5031932;28;20013;-53
2022/04/22 06:50:42;;;;;;;;;;;;;;;;;;5033796;28;19979;-53
2022/04/22 06:53:08;;;;;;;;;;;;;;;;;;5033067;28;20300;-53
2022/04/22 06:55:34;;;;;;;;;;;;;;;;;;5033719;28;19905;-52
2022/04/22 06:57:59;;;;;;;;;;;;;;;;;;5013247;28;20358;-51
2022/04/22 07:00:25;;;;;;;;;;;;;;;;;;5011688;28;19959;-52
2022/04/22 07:02:50;;;;;;;;;;;;;;;;;;5033688;28;19905;-50
2022/04/22 07:05:16;;;;;;;;;;;;;;;;;;5011543;28;20334;-53
2022/04/22 07:07:41;;;;;;;;;;;;;;;;;;5025654;28;19913;-50
2022/04/22 07:10:06;;;;;;;;;;;;;;;;;;5013382;28;19936;-52
2022/04/22 07:12:31;;;;;;;;;;;;;;;;;;5012223;28;19956;-51
2022/04/22 07:15:06;;;;;;;;;;;;;;;;;;5013738;28;20008;-52
2022/04/22 07:17:31;;;;;;;;;;;;;;;;;;5012113;28;19917;-50
2022/04/22 07:19:56;;;;;;;;;;;;;;;;;;5013433;28;19913;-53
2022/04/22 07:22:21;;;;;;;;;;;;;;;;;;5011893;28;20347;-53
2022/04/22 07:24:47;;;;;;;;;;;;;;;;;;5012957;28;20262;-54
2022/04/22 07:27:12;;;;;;;;;;;;;;;;;;5012798;28;19917;-54
2022/04/22 07:29:37;;;;;;;;;;;;;;;;;;5015012;28;19915;-51
2022/04/22 07:32:02;;;;;;;;;;;;;;;;;;5017088;28;20340;-53
2022/04/22 07:34:28;;;;;;;;;;;;;;;;;;5015480;28;20001;-52
2022/04/22 07:36:53;;;;;;;;;;;;;;;;;;5027597;28;19933;-55
2022/04/22 07:39:18;;;;;;;;;;;;;;;;;;5016771;28;19909;-53
2022/04/22 07:41:43;;;;;;;;;;;;;;;;;;5015266;28;19927;-54
2022/04/22 07:46:58;;;;;;;;;;;;;;;;;;5016184;28;20289;-53
2022/04/22 07:49:23;;;;;;;;;;;;;;;;;;5016227;28;19917;-54
2022/04/22 07:51:49;;;;;;;;;;;;;;;;;;5021745;28;19909;-54
2022/04/22 07:54:15;;;;;;;;;;;;;;;;;;5036080;28;20074;-53
2022/04/22 07:56:41;;;;;;;;;;;;;;;;;;5035839;28;20385;-54
2022/04/22 07:59:07;;;;;;;;;;;;;;;;;;5036381;28;19913;-55
2022/04/22 08:01:32;;;;;;;;;;;;;;;;;;5035254;28;19928;-55
2022/04/22 08:03:59;;;;;;;;;;;;;;;;;;5034894;28;20364;-55
2022/04/22 08:06:24;;;;;;;;;;;;;;;;;;5034734;28;19914;-52
2022/04/22 08:08:49;;;;;;;;;;;;;;;;;;5035841;28;19909;-52
2022/04/22 08:11:14;;;;;;;;;;;;;;;;;;5035582;28;19905;-54
2022/04/22 08:13:41;;;;;;;;;;;;;;;;;;5034876;28;19909;-53
2022/04/22 08:16:06;;;;;;;;;;;;;;;;;;5036050;28;20003;-54
2022/04/22 08:18:32;;;;;;;;;;;;;;;;;;5034265;28;19952;-53
2022/04/22 08:20:57;;;;;;;;;;;;;;;;;;5035737;28;19913;-52
2022/04/22 08:23:22;;;;;;;;;;;;;;;;;;5034671;28;20326;-54
2022/04/22 08:25:48;;;;;;;;;;;;;;;;;;5035392;28;19913;-53
2022/04/22 08:28:13;;;;;;;;;;;;;;;;;;5034598;28;20007;-53
2022/04/22 08:30:38;;;;;;;;;;;;;;;;;;5034032;28;19905;-53
2022/04/22 08:33:03;;;;;;;;;;;;;;;;;;5014761;28;19909;-53
2022/04/22 08:35:28;;;;;;;;;;;;;;;;;;5025495;28;19916;-60
2022/04/22 08:37:54;;;;;;;;;;;;;;;;;;5034022;28;19976;-54
2022/04/22 08:40:19;;;;;;;;;;;;;;;;;;5031664;28;19909;-53
2022/04/22 08:42:46;;;;;;;;;;;;;;;;;;5034891;28;19909;-53
2022/04/22 08:45:11;;;;;;;;;;;;;;;;;;5023450;28;19916;-54
2022/04/22 08:50:20;;;;;;;;;;;;;;;;;;5013037;28;20463;-53
2022/04/22 08:52:46;;;;;;;;;;;;;;;;;;5015243;28;20393;-54
2022/04/22 08:55:12;;;;;;;;;;;;;;;;;;5015326;28;20236;-54
2022/04/22 08:57:38;;;;;;;;;;;;;;;;;;5013948;28;19909;-55
2022/04/22 09:00:03;;;;;;;;;;;;;;;;;;5014955;28;20031;-53
2022/04/22 09:02:28;;;;;;;;;;;;;;;;;;5012319;28;20314;-53
2022/04/22 09:04:54;;;;;;;;;;;;;;;;;;5015665;28;19916;-53
2022/04/22 09:07:21;;;;;;;;;;;;;;;;;;5014887;28;19924;-54
2022/04/22 09:09:52;;;;;;;;;;;;;;;;;;5015421;28;20362;-54
2022/04/22 09:12:17;;;;;;;;;;;;;;;;;;5015244;28;20358;-54
2022/04/22 09:14:44;;;;;;;;;;;;;;;;;;5014643;28;19909;-54
2022/04/22 09:17:10;;;;;;;;;;;;;;;;;;5015178;28;19912;-54
2022/04/22 09:19:35;;;;;;;;;;;;;;;;;;5014348;28;19909;-54
2022/04/22 09:22:00;;;;;;;;;;;;;;;;;;5015263;28;20295;-56
2022/04/22 09:24:25;;;;;;;;;;;;;;;;;;5047484;28;19910;-55
2022/04/22 09:26:51;;;;;;;;;;;;;;;;;;5013055;28;19917;-55
2022/04/22 09:29:16;;;;;;;;;;;;;;;;;;5046768;28;19913;-54
2022/04/22 09:31:41;;;;;;;;;;;;;;;;;;5014529;28;19952;-54
2022/04/22 09:34:06;;;;;;;;;;;;;;;;;;5013505;28;19961;-54
2022/04/22 09:42:43;;;;;;;;;;;;;;;;;;5014792;28;19931;-53
2022/04/22 09:44:48;;;;;;;;;;;;;;;;;;5013467;28;19969;-53
2022/04/22 09:47:13;;;;;;;;;;;;;;;;;;5014042;28;19917;-55
2022/04/22 09:49:39;;;;;;;;;;;;;;;;;;5014679;28;20012;-54
2022/04/22 09:52:05;;;;;;;;;;;;;;;;;;5013569;28;19905;-54
2022/04/22 09:54:30;;;;;;;;;;;;;;;;;;5013370;28;20357;-53
2022/04/22 09:56:55;;;;;;;;;;;;;;;;;;5014840;28;20008;-53
2022/04/22 09:59:20;;;;;;;;;;;;;;;;;;5014171;28;19917;-53
2022/04/22 10:01:45;;;;;;;;;;;;;;;;;;5014547;28;19910;-55
2022/04/22 10:04:11;;;;;;;;;;;;;;;;;;5013783;28;20244;-54
2022/04/22 10:06:36;;;;;;;;;;;;;;;;;;5045882;28;19921;-54
2022/04/22 10:09:01;;;;;;;;;;;;;;;;;;5045983;28;19916;-54
2022/04/22 10:11:26;;;;;;;;;;;;;;;;;;5013839;28;19913;-54
2022/04/22 10:13:52;;;;;;;;;;;;;;;;;;5014644;28;20342;-54
2022/04/22 10:16:17;;;;;;;;;;;;;;;;;;5013609;28;19916;-52
2022/04/22 10:18:42;;;;;;;;;;;;;;;;;;5014020;28;19910;-54
2022/04/22 10:21:07;;;;;;;;;;;;;;;;;;5013730;28;19976;-53
2022/04/22 10:23:33;;;;;;;;;;;;;;;;;;5013747;28;20303;-55
2022/04/22 10:25:58;;;;;;;;;;;;;;;;;;5014429;28;20297;-54
2022/04/22 10:28:23;;;;;;;;;;;;;;;;;;5014120;28;19917;-55
2022/04/22 10:30:48;;;;;;;;;;;;;;;;;;5014378;28;19913;-52
2022/04/22 10:33:14;;;;;;;;;;;;;;;;;;5016583;28;20289;-55
2022/04/22 10:35:39;;;;;;;;;;;;;;;;;;5033376;28;19952;-55
2022/04/22 10:38:05;;;;;;;;;;;;;;;;;;5012952;28;19916;-56
2022/04/22 10:40:30;;;;;;;;;;;;;;;;;;5026890;28;19909;-56
2022/04/22 10:42:55;;;;;;;;;;;;;;;;;;5013814;28;19917;-56
2022/04/22 10:48:06;;;;;;;;;;;;;;;;;;5030710;28;19949;-55
2022/04/22 10:50:32;;;;;;;;;;;;;;;;;;5033791;28;19916;-55
2022/04/22 10:53:03;;;;;;;;;;;;;;;;;;5033336;28;20016;-54
2022/04/22 10:55:30;;;;;;;;;;;;;;;;;;5033341;28;19916;-55
2022/04/22 10:57:55;;;;;;;;;;;;;;;;;;5033703;28;19916;-54
2022/04/22 11:00:27;;;;;;;;;;;;;;;;;;5033007;28;19909;-56
2022/04/22 11:02:53;;;;;;;;;;;;;;;;;;5033375;28;19917;-56
2022/04/22 11:05:19;;;;;;;;;;;;;;;;;;5035379;28;19955;-56
2022/04/22 11:07:44;;;;;;;;;;;;;;;;;;5037339;28;19917;-53
2022/04/22 11:10:09;;;;;;;;;;;;;;;;;;5037403;28;20273;-55
2022/04/22 11:12:34;;;;;;;;;;;;;;;;;;5036969;28;19917;-55
2022/04/22 11:15:00;;;;;;;;;;;;;;;;;;5036548;28;19905;-56
2022/04/22 11:17:25;;;;;;;;;;;;;;;;;;5035755;28;19909;-56
2022/04/22 11:19:50;;;;;;;;;;;;;;;;;;5036675;28;19909;-55
2022/04/22 11:22:16;;;;;;;;;;;;;;;;;;5036192;28;19944;-58
2022/04/22 11:24:41;;;;;;;;;;;;;;;;;;5016891;28;19949;-54
2022/04/22 11:27:06;;;;;;;;;;;;;;;;;;5016775;28;19968;-57
2022/04/22 11:29:31;;;;;;;;;;;;;;;;;;5017235;28;19914;-55
2022/04/22 11:31:57;;;;;;;;;;;;;;;;;;5015197;28;19981;-57
2022/04/22 11:34:22;;;;;;;;;;;;;;;;;;5017465;28;19916;-57
2022/04/22 11:36:47;;;;;;;;;;;;;;;;;;5015095;28;19961;-56
2022/04/22 11:39:12;;;;;;;;;;;;;;;;;;5015206;28;19916;-57
2022/04/22 11:41:38;;;;;;;;;;;;;;;;;;5016762;28;20008;-56
2022/04/22 11:44:03;;;;;;;;;;;;;;;;;;5016489;28;19996;-57
2022/04/22 11:46:28;;;;;;;;;;;;;;;;;;5015513;28;19925;-57
2022/04/22 11:48:54;;;;;;;;;;;;;;;;;;5016276;28;19964;-57
2022/04/22 11:51:19;;;;;;;;;;;;;;;;;;5031647;28;19964;-57
2022/04/22 11:53:44;;;;;;;;;;;;;;;;;;5016512;28;19958;-58
2022/04/22 11:56:09;;;;;;;;;;;;;;;;;;5015139;28;20350;-57
2022/04/22 11:58:35;;;;;;;;;;;;;;;;;;5016443;28;20416;-58
2022/04/22 12:06:28;;;;;;;;;;;;;;;;;;5016864;28;19925;-57
2022/04/22 12:08:53;;;;;;;;;;;;;;;;;;5015837;28;20320;-58
2022/04/22 12:11:18;;;;;;;;;;;;;;;;;;5016123;28;19917;-57
2022/04/22 12:13:44;;;;;;;;;;;;;;;;;;5016026;28;20368;-57
2022/04/22 12:16:09;;;;;;;;;;;;;;;;;;5015720;28;19910;-57
2022/04/22 12:18:37;;;;;;;;;;;;;;;;;;5016310;28;19909;-56
2022/04/22 12:21:02;;;;;;;;;;;;;;;;;;5015535;28;20013;-56
2022/04/22 12:23:28;;;;;;;;;;;;;;;;;;5031726;28;19999;-58
2022/04/22 12:25:53;;;;;;;;;;;;;;;;;;5015472;28;19964;-56
2022/04/22 12:28:20;;;;;;;;;;;;;;;;;;5015426;28;19917;-57
2022/04/22 12:30:45;;;;;;;;;;;;;;;;;;5016357;28;19914;-57
2022/04/22 12:33:10;;;;;;;;;;;;;;;;;;5015315;28;19912;-57
2022/04/22 12:35:36;;;;;;;;;;;;;;;;;;5030809;28;20385;-58
2022/04/22 12:38:02;;;;;;;;;;;;;;;;;;5031144;28;19909;-57
2022/04/22 12:40:27;;;;;;;;;;;;;;;;;;5015774;28;19917;-57
2022/04/22 12:42:52;;;;;;;;;;;;;;;;;;5015587;28;20009;-57
2022/04/22 12:53:29;;;;;;;;;;;;;;;;;;5015104;28;19909;-57
2022/04/22 12:55:54;;;;;;;;;;;;;;;;;;5014793;28;19910;-57
2022/04/22 12:58:19;;;;;;;;;;;;;;;;;;5016022;28;19905;-58
2022/04/22 13:00:45;;;;;;;;;;;;;;;;;;5014729;28;19913;-58
2022/04/22 13:03:11;;;;;;;;;;;;;;;;;;5014883;28;19909;-59
2022/04/22 13:05:36;;;;;;;;;;;;;;;;;;5033256;28;19910;-58
2022/04/22 13:08:01;;;;;;;;;;;;;;;;;;5032261;28;19917;-58
2022/04/22 13:10:26;;;;;;;;;;;;;;;;;;5034989;28;19920;-57
2022/04/22 13:12:52;;;;;;;;;;;;;;;;;;5024793;28;20354;-57
2022/04/22 13:15:18;;;;;;;;;;;;;;;;;;5014926;28;19957;-57
2022/04/22 13:17:43;;;;;;;;;;;;;;;;;;5014654;28;19913;-58
2022/04/22 13:20:08;;;;;;;;;;;;;;;;;;5014582;28;19910;-58
2022/04/22 13:22:34;;;;;;;;;;;;;;;;;;5014196;28;20355;-58
2022/04/22 13:24:59;;;;;;;;;;;;;;;;;;5014983;28;19906;-57
2022/04/22 13:27:24;;;;;;;;;;;;;;;;;;5014361;28;19918;-57
2022/04/22 13:29:49;;;;;;;;;;;;;;;;;;5046253;28;19909;-57
2022/04/22 13:32:15;;;;;;;;;;;;;;;;;;5014699;28;19915;-57
2022/04/22 13:34:40;;;;;;;;;;;;;;;;;;5014836;28;19916;-58
2022/04/22 13:37:05;;;;;;;;;;;;;;;;;;5014154;28;20334;-58
2022/04/22 13:39:30;;;;;;;;;;;;;;;;;;5014652;28;20302;-57
2022/04/22 13:41:55;;;;;;;;;;;;;;;;;;5032642;28;19905;-57
2022/04/22 13:52:21;;;;;;;;;;;;;;;;;;5034099;28;19944;-57
2022/04/22 13:52:34;;;;;;;;;;;;;;;;;;5033539;28;20377;-58
2022/04/22 13:55:00;;;;;;;;;;;;;;;;;;5034442;28;19905;-58
2022/04/22 13:57:25;;;;;;;;;;;;;;;;;;5033951;28;19913;-58
2022/04/22 13:59:51;;;;;;;;;;;;;;;;;;5033939;28;19932;-58
2022/04/22 14:02:16;;;;;;;;;;;;;;;;;;5033629;28;19905;-61
2022/04/22 14:04:42;;;;;;;;;;;;;;;;;;5033758;28;19963;-59
2022/04/22 14:07:07;;;;;;;;;;;;;;;;;;5032919;28;19928;-59
2022/04/22 14:09:32;;;;;;;;;;;;;;;;;;5032608;28;20007;-58
2022/04/22 14:11:57;;;;;;;;;;;;;;;;;;5032773;28;20015;-58
2022/04/22 14:14:24;;;;;;;;;;;;;;;;;;5032195;28;19967;-58
2022/04/22 14:16:50;;;;;;;;;;;;;;;;;;5015905;28;19916;-57
2022/04/22 14:19:15;;;;;;;;;;;;;;;;;;5033985;28;19909;-58
2022/04/22 14:21:41;;;;;;;;;;;;;;;;;;5034023;28;19921;-58
2022/04/22 14:24:06;;;;;;;;;;;;;;;;;;5034019;28;19909;-58
2022/04/22 14:26:31;;;;;;;;;;;;;;;;;;5033516;28;19917;-57
2022/04/22 14:28:57;;;;;;;;;;;;;;;;;;5032538;28;19913;-57
2022/04/22 14:31:22;;;;;;;;;;;;;;;;;;5033697;28;19909;-57
2022/04/22 14:33:47;;;;;;;;;;;;;;;;;;5033542;28;20399;-58
2022/04/22 14:36:13;;;;;;;;;;;;;;;;;;5032694;28;19909;-57
2022/04/22 14:38:38;;;;;;;;;;;;;;;;;;5034683;28;20000;-57
2022/04/22 14:41:04;;;;;;;;;;;;;;;;;;5022955;28;19910;-58
2022/04/22 14:43:29;;;;;;;;;;;;;;;;;;5018066;28;19910;-57
2022/04/22 14:45:54;;;;;;;;;;;;;;;;;;5017464;28;19909;-58
2022/04/22 14:48:19;;;;;;;;;;;;;;;;;;5017740;28;19917;-59
2022/04/22 14:50:45;;;;;;;;;;;;;;;;;;5017307;28;19917;-58
2022/04/22 14:53:10;;;;;;;;;;;;;;;;;;5049192;28;20337;-58
2022/04/22 14:55:35;;;;;;;;;;;;;;;;;;5049990;28;20376;-57
2022/04/22 14:58:00;;;;;;;;;;;;;;;;;;5017261;28;19905;-57
2022/04/22 15:00:26;;;;;;;;;;;;;;;;;;5048885;28;20263;-57
2022/04/22 15:02:51;;;;;;;;;;;;;;;;;;5032337;28;20363;-58
2022/04/22 15:05:16;;;;;;;;;;;;;;;;;;5017475;28;19909;-58
2022/04/22 15:07:42;;;;;;;;;;;;;;;;;;5017307;28;19972;-58
2022/04/22 15:10:07;;;;;;;;;;;;;;;;;;5017439;28;20104;-56
2022/04/22 15:12:32;;;;;;;;;;;;;;;;;;5049592;28;20362;-58
2022/04/22 15:14:57;;;;;;;;;;;;;;;;;;5016793;28;19932;-56
2022/04/22 15:24:09;;;;;;;;;;;;;;;;;;5017504;28;19916;-58
2022/04/22 15:25:36;;;;;;;;;;;;;;;;;;5015460;28;19913;-56
2022/04/22 15:28:01;;;;;;;;;;;;;;;;;;5021954;28;19999;-57
2022/04/22 15:30:26;;;;;;;;;;;;;;;;;;5036432;28;20003;-57
2022/04/22 15:32:51;;;;;;;;;;;;;;;;;;5035758;28;19910;-58
2022/04/22 15:35:16;;;;;;;;;;;;;;;;;;5035306;28;19913;-57
2022/04/22 15:37:42;;;;;;;;;;;;;;;;;;5035499;28;19999;-57
2022/04/22 15:40:07;;;;;;;;;;;;;;;;;;5036541;28;20321;-56
2022/04/22 15:42:32;;;;;;;;;;;;;;;;;;5024729;28;19920;-56
2022/04/22 15:44:57;;;;;;;;;;;;;;;;;;5036457;28;19909;-56
2022/04/22 15:47:23;;;;;;;;;;;;;;;;;;5033125;28;19917;-56
2022/04/22 15:49:48;;;;;;;;;;;;;;;;;;5018167;28;19916;-56
2022/04/22 15:52:13;;;;;;;;;;;;;;;;;;5014800;28;19910;-56
2022/04/22 15:54:39;;;;;;;;;;;;;;;;;;5020224;28;19916;-56
2022/04/22 15:57:05;;;;;;;;;;;;;;;;;;5036398;28;19909;-57
2022/04/22 15:59:30;;;;;;;;;;;;;;;;;;5034562;28;19932;-57
2022/04/22 16:01:55;;;;;;;;;;;;;;;;;;5036574;28;20246;-57
2022/04/22 16:04:21;;;;;;;;;;;;;;;;;;5036525;28;19916;-57
2022/04/22 16:06:46;;;;;;;;;;;;;;;;;;5035925;28;19917;-58
2022/04/22 16:09:11;;;;;;;;;;;;;;;;;;5035546;28;19931;-58
2022/04/22 16:17:05;;;;;;;;;;;;;;;;;;5036564;28;19971;-58
2022/04/22 16:19:30;;;;;;;;;;;;;;;;;;5029312;28;20546;-58
2022/04/22 16:21:56;;;;;;;;;;;;;;;;;;5015698;28;19913;-58
2022/04/22 16:24:21;;;;;;;;;;;;;;;;;;5048347;28;19910;-58
2022/04/22 16:26:46;;;;;;;;;;;;;;;;;;5015954;28;19917;-58
2022/04/22 16:29:11;;;;;;;;;;;;;;;;;;5016478;28;19909;-57
2022/04/22 16:31:39;;;;;;;;;;;;;;;;;;5024944;28;19916;-57
2022/04/22 16:34:04;;;;;;;;;;;;;;;;;;5035492;28;19905;-57
2022/04/22 16:36:29;;;;;;;;;;;;;;;;;;5044130;28;19961;-56
2022/04/22 16:38:55;;;;;;;;;;;;;;;;;;5052269;28;20406;-57
2022/04/22 16:41:20;;;;;;;;;;;;;;;;;;5035789;28;19909;-57
2022/04/22 16:43:45;;;;;;;;;;;;;;;;;;5033899;28;19954;-58
2022/04/22 16:46:11;;;;;;;;;;;;;;;;;;5035183;28;20281;-57
2022/04/22 16:48:37;;;;;;;;;;;;;;;;;;5035687;28;19920;-57
2022/04/22 16:51:02;;;;;;;;;;;;;;;;;;5035532;28;19905;-57
2022/04/22 16:53:27;;;;;;;;;;;;;;;;;;5035607;28;20269;-57
2022/04/22 16:55:52;;;;;;;;;;;;;;;;;;5033616;28;20393;-57
2022/04/22 16:58:18;;;;;;;;;;;;;;;;;;5034407;28;20259;-57
2022/04/22 17:00:43;;;;;;;;;;;;;;;;;;5034710;28;19906;-57
2022/04/22 17:03:08;;;;;;;;;;;;;;;;;;5034444;28;19959;-57
2022/04/22 17:05:33;;;;;;;;;;;;;;;;;;5035069;28;19905;-57
2022/04/22 17:08:01;;;;;;;;;;;;;;;;;;5033589;28;19917;-57
2022/04/22 17:10:26;;;;;;;;;;;;;;;;;;5032409;28;19932;-57
2022/04/22 17:12:52;;;;;;;;;;;;;;;;;;5033963;28;20301;-57
2022/04/22 17:23:40;;;;;;;;;;;;;;;;;;5101632;27;19912;-55
2022/04/22 17:26:07;;;;;;;;;;;;;;;;;;5070749;28;20250;-56
2022/04/22 17:28:32;;;;;;;;;;;;;;;;;;5071164;28;20280;-55
2022/04/22 17:30:58;;;;;;;;;;;;;;;;;;5068114;28;19921;-55
2022/04/22 17:33:23;;;;;;;;;;;;;;;;;;5070245;28;19908;-56
2022/04/22 17:35:48;;;;;;;;;;;;;;;;;;5070516;28;19958;-56
2022/04/22 17:38:13;;;;;;;;;;;;;;;;;;5069589;28;19949;-55
2022/04/22 17:40:40;;;;;;;;;;;;;;;;;;5070983;28;20226;-54
2022/04/22 17:43:06;;;;;;;;;;;;;;;;;;5070503;28;19952;-55
2022/04/22 17:45:31;;;;;;;;;;;;;;;;;;5070980;28;19916;-54
2022/04/22 17:47:56;;;;;;;;;;;;;;;;;;5070519;28;19916;-56
2022/04/22 17:50:23;;;;;;;;;;;;;;;;;;5070205;28;19909;-56
2022/04/22 17:52:49;;;;;;;;;;;;;;;;;;5070605;28;20007;-57
2022/04/22 17:55:15;;;;;;;;;;;;;;;;;;5069126;28;19963;-53
2022/04/22 17:57:42;;;;;;;;;;;;;;;;;;5069950;28;19909;-54
2022/04/22 18:00:07;;;;;;;;;;;;;;;;;;5059937;28;19913;-55
2022/04/22 18:02:33;;;;;;;;;;;;;;;;;;5049475;28;19916;-55